Time;durP1;ratioP1;P1;durP2;ratioP2;P2;SDS_P1;SDS_P2;PMS_P1;PMS_P2;Temp;Humidity;BMP_temperature;BMP_pressure;BME280_temperature;BME280_humidity;BME280_pressure;Samples;Min_cycle;Max_cycle;Signal;HPM_P1;HPM_P2
2023/08/26 00:00:10;;;;;;;941.92;854.40;;;;;;;;;;5001605;28;20047;-60
2023/08/26 00:02:37;;;;;;;944.75;856.10;;;;;;;;;;5003534;28;20053;-60
2023/08/26 00:05:04;;;;;;;943.88;857.38;;;;;;;;;;4998530;28;20038;-60
2023/08/26 00:07:31;;;;;;;939.47;852.38;;;;;;;;;;4996188;28;20070;-61
2023/08/26 00:09:57;;;;;;;940.55;853.30;;;;;;;;;;4978659;28;20037;-60
2023/08/26 00:12:24;;;;;;;949.20;856.38;;;;;;;;;;4998865;28;20463;-60
2023/08/26 00:14:51;;;;;;;945.85;857.97;;;;;;;;;;4997971;28;20621;-60
2023/08/26 00:17:17;;;;;;;934.33;847.00;;;;;;;;;;5000735;28;20373;-60
2023/08/26 00:19:44;;;;;;;939.33;852.35;;;;;;;;;;4997361;28;20073;-60
2023/08/26 00:22:11;;;;;;;947.13;856.90;;;;;;;;;;5001219;28;20133;-61
2023/08/26 00:24:38;;;;;;;942.38;854.75;;;;;;;;;;4983492;28;20056;-60
2023/08/26 00:27:05;;;;;;;935.40;850.60;;;;;;;;;;5001639;28;20624;-59
2023/08/26 00:29:32;;;;;;;941.72;855.13;;;;;;;;;;5021503;28;20569;-61
2023/08/26 00:31:58;;;;;;;945.33;857.60;;;;;;;;;;5019215;28;20494;-60
2023/08/26 00:34:25;;;;;;;941.33;853.42;;;;;;;;;;5018612;28;20053;-60
2023/08/26 00:36:52;;;;;;;942.90;854.80;;;;;;;;;;5018987;28;20065;-60
2023/08/26 00:39:18;;;;;;;941.45;853.83;;;;;;;;;;5001424;28;20057;-60
2023/08/26 00:41:46;;;;;;;943.65;854.45;;;;;;;;;;5003005;28;20046;-61
2023/08/26 00:44:12;;;;;;;942.75;853.15;;;;;;;;;;5019050;28;20423;-61
2023/08/26 00:46:39;;;;;;;940.40;853.45;;;;;;;;;;5003669;28;20144;-60
2023/08/26 00:49:07;;;;;;;935.60;849.08;;;;;;;;;;5019379;28;20892;-60
2023/08/26 00:51:34;;;;;;;951.92;859.03;;;;;;;;;;5019072;28;20522;-60
2023/08/26 00:54:01;;;;;;;936.97;849.28;;;;;;;;;;5022429;28;20057;-60
2023/08/26 00:56:27;;;;;;;935.83;849.63;;;;;;;;;;5008441;28;20045;-61
2023/08/26 00:58:54;;;;;;;938.42;852.15;;;;;;;;;;5012504;28;20041;-60
2023/08/26 01:01:21;;;;;;;940.60;853.33;;;;;;;;;;5021951;28;20232;-60
2023/08/26 01:03:48;;;;;;;946.00;856.63;;;;;;;;;;5022304;28;20049;-60
2023/08/26 01:06:15;;;;;;;935.05;847.42;;;;;;;;;;5023417;28;20092;-60
2023/08/26 01:08:41;;;;;;;928.45;843.28;;;;;;;;;;5025655;28;20073;-61
2023/08/26 01:11:16;;;;;;;930.72;844.75;;;;;;;;;;5022684;28;20074;-61
2023/08/26 01:13:53;;;;;;;927.25;838.33;;;;;;;;;;5000225;28;20049;-61
2023/08/26 01:16:22;;;;;;;931.35;842.47;;;;;;;;;;5003368;28;20075;-61
2023/08/26 01:18:49;;;;;;;929.55;840.35;;;;;;;;;;5023868;28;20048;-61
2023/08/26 01:21:18;;;;;;;931.75;843.45;;;;;;;;;;5007034;28;20050;-60
2023/08/26 01:23:45;;;;;;;932.03;844.13;;;;;;;;;;5012669;28;20048;-60
2023/08/26 01:26:12;;;;;;;935.97;846.42;;;;;;;;;;5004718;28;20045;-60
2023/08/26 01:28:39;;;;;;;926.10;839.22;;;;;;;;;;5024646;28;20054;-60
2023/08/26 01:31:10;;;;;;;924.90;838.33;;;;;;;;;;5002984;28;20042;-60
2023/08/26 01:33:42;;;;;;;936.00;844.45;;;;;;;;;;5004412;28;20136;-60
2023/08/26 01:36:10;;;;;;;922.27;836.57;;;;;;;;;;5004714;28;20046;-60
2023/08/26 01:38:38;;;;;;;934.67;845.15;;;;;;;;;;5007419;28;20107;-60
2023/08/26 01:41:07;;;;;;;936.67;847.85;;;;;;;;;;5021095;28;20099;-60
2023/08/26 01:43:34;;;;;;;933.05;845.42;;;;;;;;;;5022032;28;20041;-60
2023/08/26 01:46:01;;;;;;;932.95;845.13;;;;;;;;;;5002429;28;20054;-61
2023/08/26 01:48:27;;;;;;;946.63;853.22;;;;;;;;;;5019639;28;20046;-60
2023/08/26 01:50:54;;;;;;;932.88;845.30;;;;;;;;;;4995404;28;20053;-61
2023/08/26 01:53:21;;;;;;;934.85;847.10;;;;;;;;;;5023246;28;20048;-60
2023/08/26 01:55:47;;;;;;;934.60;844.47;;;;;;;;;;5024158;28;20045;-60
2023/08/26 01:58:14;;;;;;;927.95;840.63;;;;;;;;;;5003302;28;20053;-60
2023/08/26 02:03:22;;;;;;;931.78;842.55;;;;;;;;;;4961392;28;20055;-62
2023/08/26 02:05:49;;;;;;;924.05;836.25;;;;;;;;;;4974795;28;20564;-62
2023/08/26 02:08:16;;;;;;;925.92;837.40;;;;;;;;;;4964757;28;20039;-60
2023/08/26 02:10:43;;;;;;;915.33;830.72;;;;;;;;;;4959353;28;20082;-64
2023/08/26 02:13:12;;;;;;;921.22;834.55;;;;;;;;;;4964924;28;20098;-62
2023/08/26 02:15:38;;;;;;;920.75;830.90;;;;;;;;;;4962435;28;20051;-63
2023/08/26 02:18:06;;;;;;;924.78;836.20;;;;;;;;;;4980149;28;20097;-62
2023/08/26 02:20:32;;;;;;;920.90;834.08;;;;;;;;;;4980891;28;20547;-62
2023/08/26 02:22:59;;;;;;;926.72;837.15;;;;;;;;;;4979538;28;20051;-63
2023/08/26 02:25:25;;;;;;;924.65;836.30;;;;;;;;;;4961493;28;20101;-62
2023/08/26 02:27:55;;;;;;;924.45;837.13;;;;;;;;;;4962398;28;20043;-62
2023/08/26 02:30:21;;;;;;;934.63;843.88;;;;;;;;;;4962364;28;20105;-63
2023/08/26 02:32:48;;;;;;;938.70;847.88;;;;;;;;;;4958406;28;20145;-62
2023/08/26 02:35:15;;;;;;;930.22;841.55;;;;;;;;;;4962813;28;20043;-63
2023/08/26 02:37:42;;;;;;;927.95;838.25;;;;;;;;;;4961792;28;20042;-63
2023/08/26 02:40:09;;;;;;;915.08;829.00;;;;;;;;;;4964030;28;20101;-63
2023/08/26 02:42:36;;;;;;;928.05;836.10;;;;;;;;;;4981190;28;20050;-61
2023/08/26 02:45:04;;;;;;;934.33;845.25;;;;;;;;;;4965637;28;20054;-63
2023/08/26 02:47:30;;;;;;;917.53;830.90;;;;;;;;;;4950009;28;20134;-62
2023/08/26 02:49:57;;;;;;;920.90;834.05;;;;;;;;;;4977092;28;20049;-63
2023/08/26 02:52:28;;;;;;;924.15;835.72;;;;;;;;;;4963313;28;20133;-61
2023/08/26 02:54:54;;;;;;;918.35;829.45;;;;;;;;;;4952381;28;20551;-63
2023/08/26 02:57:21;;;;;;;915.85;827.85;;;;;;;;;;4967975;28;20130;-61
2023/08/26 02:59:49;;;;;;;907.53;818.45;;;;;;;;;;4980084;28;20138;-61
2023/08/26 03:02:16;;;;;;;916.00;828.83;;;;;;;;;;4962465;28;20094;-62
2023/08/26 03:04:43;;;;;;;911.05;821.05;;;;;;;;;;4981365;28;20452;-62
2023/08/26 03:07:09;;;;;;;917.80;827.78;;;;;;;;;;4976180;28;20070;-63
2023/08/26 03:09:36;;;;;;;913.05;823.13;;;;;;;;;;4962951;28;20050;-62
2023/08/26 03:12:03;;;;;;;909.47;824.28;;;;;;;;;;4965839;28;20046;-63
2023/08/26 03:14:29;;;;;;;912.60;822.15;;;;;;;;;;4963804;28;20058;-64
2023/08/26 03:16:56;;;;;;;902.92;815.50;;;;;;;;;;4951847;28;20043;-64
2023/08/26 03:19:22;;;;;;;908.90;820.70;;;;;;;;;;4963297;28;20050;-62
2023/08/26 03:21:49;;;;;;;902.35;812.45;;;;;;;;;;4965781;28;20043;-63
2023/08/26 03:24:19;;;;;;;897.65;809.97;;;;;;;;;;4960763;28;20058;-63
2023/08/26 03:26:47;;;;;;;895.47;806.90;;;;;;;;;;4941907;29;20265;-64
2023/08/26 03:29:14;;;;;;;905.05;815.55;;;;;;;;;;4976774;28;20059;-64
2023/08/26 03:31:43;;;;;;;894.55;807.72;;;;;;;;;;4953716;28;20054;-65
2023/08/26 03:34:12;;;;;;;887.40;801.50;;;;;;;;;;4977353;28;20049;-63
2023/08/26 03:36:39;;;;;;;896.42;805.30;;;;;;;;;;4961519;28;20054;-63
2023/08/26 03:39:05;;;;;;;889.20;803.75;;;;;;;;;;4952391;28;20074;-65
2023/08/26 03:41:32;;;;;;;893.33;806.58;;;;;;;;;;4958931;28;20082;-62
2023/08/26 03:44:00;;;;;;;890.42;802.78;;;;;;;;;;4960891;28;20047;-62
2023/08/26 03:46:27;;;;;;;889.03;800.65;;;;;;;;;;4958465;28;20054;-63
2023/08/26 03:48:54;;;;;;;893.95;807.10;;;;;;;;;;4957801;28;20058;-64
2023/08/26 03:51:21;;;;;;;897.72;807.63;;;;;;;;;;4961109;28;20043;-63
2023/08/26 03:53:48;;;;;;;884.25;797.60;;;;;;;;;;4962519;28;20126;-62
2023/08/26 03:56:14;;;;;;;895.15;808.58;;;;;;;;;;4963060;28;20062;-63
2023/08/26 03:58:41;;;;;;;894.70;805.58;;;;;;;;;;4950870;28;20055;-67
2023/08/26 04:01:07;;;;;;;888.00;799.95;;;;;;;;;;4979101;28;20043;-64
2023/08/26 04:03:34;;;;;;;903.92;812.00;;;;;;;;;;4951520;28;20055;-66
2023/08/26 04:06:02;;;;;;;890.30;802.83;;;;;;;;;;4966957;28;20122;-63
2023/08/26 04:08:33;;;;;;;893.40;804.83;;;;;;;;;;4978883;28;20106;-64
2023/08/26 04:11:00;;;;;;;893.33;807.40;;;;;;;;;;4965592;28;20043;-63
2023/08/26 04:13:28;;;;;;;904.38;815.03;;;;;;;;;;4976916;28;20082;-64
2023/08/26 04:15:58;;;;;;;898.67;811.58;;;;;;;;;;4957770;28;20480;-62
2023/08/26 04:18:25;;;;;;;906.25;815.38;;;;;;;;;;4975409;28;20058;-62
2023/08/26 04:20:54;;;;;;;904.97;813.60;;;;;;;;;;4974275;28;20385;-62
2023/08/26 04:23:21;;;;;;;899.85;811.97;;;;;;;;;;4974774;28;20051;-63
2023/08/26 04:25:49;;;;;;;901.03;813.53;;;;;;;;;;4973382;28;20644;-62
2023/08/26 04:28:17;;;;;;;901.55;813.53;;;;;;;;;;4977968;28;20043;-62
2023/08/26 04:30:44;;;;;;;915.10;824.45;;;;;;;;;;4964819;28;20043;-62
2023/08/26 04:33:11;;;;;;;914.22;826.05;;;;;;;;;;4973688;28;20066;-64
2023/08/26 04:35:38;;;;;;;917.03;826.42;;;;;;;;;;4945455;28;20547;-63
2023/08/26 04:38:04;;;;;;;917.72;831.70;;;;;;;;;;4950134;28;20562;-64
2023/08/26 04:40:31;;;;;;;914.70;825.45;;;;;;;;;;4962708;28;20124;-64
2023/08/26 04:42:57;;;;;;;915.25;826.20;;;;;;;;;;4964662;28;20046;-62
2023/08/26 04:45:24;;;;;;;923.25;832.55;;;;;;;;;;4962872;28;20043;-63
2023/08/26 04:47:51;;;;;;;925.17;835.35;;;;;;;;;;4951571;28;20039;-66
2023/08/26 04:50:17;;;;;;;930.03;838.03;;;;;;;;;;4950325;28;20130;-63
2023/08/26 04:52:44;;;;;;;934.00;844.47;;;;;;;;;;4964670;28;20504;-66
2023/08/26 04:55:11;;;;;;;941.85;851.78;;;;;;;;;;4962425;28;20097;-63
2023/08/26 04:57:38;;;;;;;943.05;851.10;;;;;;;;;;4978632;28;20054;-63
2023/08/26 05:00:08;;;;;;;954.28;864.45;;;;;;;;;;4974177;28;20070;-62
2023/08/26 05:02:37;;;;;;;981.15;888.88;;;;;;;;;;4976422;28;20734;-63
2023/08/26 05:05:06;;;;;;;997.15;905.40;;;;;;;;;;4976861;28;20057;-66
2023/08/26 05:07:33;;;;;;;1030.05;936.00;;;;;;;;;;4964040;28;20066;-63
2023/08/26 05:10:00;;;;;;;1059.03;963.70;;;;;;;;;;4964755;28;20388;-63
2023/08/26 05:12:27;;;;;;;1084.25;982.13;;;;;;;;;;4974707;28;20046;-62
2023/08/26 05:14:53;;;;;;;1092.18;994.63;;;;;;;;;;4957881;28;20148;-62
2023/08/26 05:17:20;;;;;;;1109.20;999.90;;;;;;;;;;4958418;28;20057;-64
2023/08/26 05:19:47;;;;;;;1115.50;999.90;;;;;;;;;;4959579;28;20049;-62
2023/08/26 05:22:14;;;;;;;1111.93;999.90;;;;;;;;;;4978919;28;20046;-62
2023/08/26 05:24:40;;;;;;;1106.90;999.90;;;;;;;;;;4944652;28;20609;-63
2023/08/26 05:27:07;;;;;;;1095.72;996.58;;;;;;;;;;4958950;28;20129;-62
2023/08/26 05:29:35;;;;;;;1085.25;990.88;;;;;;;;;;4950187;28;20051;-63
2023/08/26 05:32:01;;;;;;;1080.68;985.33;;;;;;;;;;4966112;28;20067;-63
2023/08/26 05:34:28;;;;;;;1092.90;994.83;;;;;;;;;;4976036;28;20043;-66
2023/08/26 05:36:55;;;;;;;1095.03;997.58;;;;;;;;;;4950912;28;20046;-61
2023/08/26 05:39:21;;;;;;;1113.32;999.90;;;;;;;;;;4975646;28;20079;-64
2023/08/26 05:41:48;;;;;;;1131.50;999.90;;;;;;;;;;4964027;28;20121;-62
2023/08/26 05:44:14;;;;;;;1142.18;999.90;;;;;;;;;;4960043;28;20132;-69
2023/08/26 05:46:41;;;;;;;1136.72;999.90;;;;;;;;;;4965081;28;20606;-61
2023/08/26 05:49:07;;;;;;;1136.57;999.90;;;;;;;;;;4978660;28;20047;-63
2023/08/26 05:51:35;;;;;;;1130.82;999.90;;;;;;;;;;4961221;28;20159;-62
2023/08/26 05:54:01;;;;;;;1117.72;999.90;;;;;;;;;;4963239;28;20097;-61
2023/08/26 05:56:28;;;;;;;1121.35;999.90;;;;;;;;;;4960079;28;20134;-67
2023/08/26 05:58:55;;;;;;;1116.22;999.90;;;;;;;;;;4968546;28;20057;-61
2023/08/26 06:01:22;;;;;;;1126.25;999.90;;;;;;;;;;4982609;28;20109;-64
2023/08/26 06:03:49;;;;;;;1131.65;999.90;;;;;;;;;;4961426;28;20050;-61
2023/08/26 06:06:15;;;;;;;1131.07;999.90;;;;;;;;;;4953413;28;20063;-61
2023/08/26 06:08:42;;;;;;;1145.13;999.90;;;;;;;;;;4945518;28;20106;-66
2023/08/26 06:11:09;;;;;;;1163.80;999.90;;;;;;;;;;4957897;28;20047;-61
2023/08/26 06:13:35;;;;;;;1173.30;999.90;;;;;;;;;;4965844;28;20043;-63
2023/08/26 06:16:02;;;;;;;1170.88;999.90;;;;;;;;;;4964615;28;20046;-61
2023/08/26 06:18:29;;;;;;;1190.60;999.90;;;;;;;;;;4951134;28;20138;-61
2023/08/26 06:20:56;;;;;;;1183.03;999.90;;;;;;;;;;4976039;28;20663;-60
2023/08/26 06:23:22;;;;;;;1191.88;999.90;;;;;;;;;;4975678;28;20569;-61
2023/08/26 06:25:50;;;;;;;1197.05;999.90;;;;;;;;;;4954213;28;20114;-62
2023/08/26 06:28:16;;;;;;;1189.78;999.90;;;;;;;;;;4970156;28;20071;-63
2023/08/26 06:30:44;;;;;;;1200.13;999.90;;;;;;;;;;4977560;28;20050;-61
2023/08/26 06:33:11;;;;;;;1206.07;999.90;;;;;;;;;;4977860;28;20047;-62
2023/08/26 06:35:38;;;;;;;1205.35;999.90;;;;;;;;;;4960950;28;20046;-62
2023/08/26 06:38:04;;;;;;;1207.18;999.90;;;;;;;;;;4944072;28;20054;-62
2023/08/26 06:40:34;;;;;;;1212.38;999.90;;;;;;;;;;4977988;28;20063;-61
2023/08/26 06:43:04;;;;;;;1206.10;999.90;;;;;;;;;;4980768;28;20045;-61
2023/08/26 06:45:34;;;;;;;1212.47;999.90;;;;;;;;;;4974277;28;20449;-62
2023/08/26 06:48:03;;;;;;;1223.75;999.90;;;;;;;;;;4972027;28;20098;-61
2023/08/26 06:50:30;;;;;;;1207.32;999.90;;;;;;;;;;4951921;28;20404;-62
2023/08/26 06:52:58;;;;;;;1215.65;999.90;;;;;;;;;;4951849;28;20120;-63
2023/08/26 06:55:24;;;;;;;1219.68;999.90;;;;;;;;;;4955752;28;20043;-68
2023/08/26 06:57:51;;;;;;;1216.10;999.90;;;;;;;;;;4962595;28;20050;-67
2023/08/26 07:00:18;;;;;;;1209.75;999.90;;;;;;;;;;4975634;28;20378;-62
2023/08/26 07:02:44;;;;;;;1212.72;999.90;;;;;;;;;;4964163;28;20463;-67
2023/08/26 07:05:11;;;;;;;1218.13;999.90;;;;;;;;;;4960460;28;20042;-66
2023/08/26 07:07:37;;;;;;;1223.47;999.90;;;;;;;;;;4963444;28;20114;-66
2023/08/26 07:10:04;;;;;;;1222.45;999.90;;;;;;;;;;4966558;28;20065;-66
2023/08/26 07:12:31;;;;;;;1228.10;999.90;;;;;;;;;;4951753;28;20034;-67
2023/08/26 07:14:58;;;;;;;1225.28;999.90;;;;;;;;;;4963426;28;20031;-66
2023/08/26 07:17:24;;;;;;;1234.10;999.90;;;;;;;;;;4962429;28;20094;-67
2023/08/26 07:19:51;;;;;;;1230.72;999.90;;;;;;;;;;4953125;28;20051;-66
2023/08/26 07:22:18;;;;;;;1222.35;999.90;;;;;;;;;;4963326;28;20038;-66
2023/08/26 07:24:54;;;;;;;1237.78;999.90;;;;;;;;;;4962364;28;20384;-67
2023/08/26 07:27:23;;;;;;;1230.30;999.90;;;;;;;;;;4962987;28;20081;-66
2023/08/26 07:29:49;;;;;;;1232.28;999.90;;;;;;;;;;4964580;28;20400;-67
2023/08/26 07:32:16;;;;;;;1229.45;999.90;;;;;;;;;;4960762;28;20046;-67
2023/08/26 07:34:42;;;;;;;1226.00;999.90;;;;;;;;;;4962112;28;20142;-67
2023/08/26 07:37:09;;;;;;;1228.80;999.90;;;;;;;;;;4960879;28;20131;-66
2023/08/26 07:39:36;;;;;;;1247.15;999.90;;;;;;;;;;4975636;28;20594;-67
2023/08/26 07:42:03;;;;;;;1221.18;999.90;;;;;;;;;;4961085;28;20051;-67
2023/08/26 07:44:29;;;;;;;1227.03;999.90;;;;;;;;;;4962514;28;20043;-67
2023/08/26 07:46:56;;;;;;;1224.07;999.90;;;;;;;;;;4958895;28;20039;-66
2023/08/26 07:49:23;;;;;;;1222.00;999.90;;;;;;;;;;4956404;28;20059;-65
2023/08/26 07:51:50;;;;;;;1206.97;999.90;;;;;;;;;;4963024;28;20062;-66
2023/08/26 07:54:16;;;;;;;1193.55;999.90;;;;;;;;;;4962588;28;20122;-67
2023/08/26 07:56:43;;;;;;;1186.95;999.90;;;;;;;;;;4943196;28;20420;-68
2023/08/26 07:59:10;;;;;;;1183.05;999.90;;;;;;;;;;4961943;28;20043;-66
2023/08/26 08:01:36;;;;;;;1184.68;999.90;;;;;;;;;;4964215;28;20121;-71
2023/08/26 08:04:03;;;;;;;1166.20;999.90;;;;;;;;;;4960184;28;20063;-60
2023/08/26 08:06:29;;;;;;;1165.40;999.90;;;;;;;;;;4959751;28;20674;-67
2023/08/26 08:08:56;;;;;;;1156.57;999.90;;;;;;;;;;4955240;28;20078;-65
2023/08/26 08:11:23;;;;;;;1149.93;999.90;;;;;;;;;;4953580;28;20058;-63
2023/08/26 08:13:50;;;;;;;1145.15;999.90;;;;;;;;;;4941318;28;20067;-63
2023/08/26 08:16:16;;;;;;;1146.25;999.90;;;;;;;;;;4953759;28;20512;-63
2023/08/26 08:18:43;;;;;;;1154.72;999.90;;;;;;;;;;4960686;28;20042;-63
2023/08/26 08:21:09;;;;;;;1143.22;999.90;;;;;;;;;;4963664;28;20101;-62
2023/08/26 08:23:38;;;;;;;1140.88;999.90;;;;;;;;;;4977673;28;20055;-65
2023/08/26 08:26:04;;;;;;;1138.72;999.90;;;;;;;;;;4960694;28;20522;-63
2023/08/26 08:28:31;;;;;;;1137.03;999.90;;;;;;;;;;4959954;28;20054;-64
2023/08/26 08:30:58;;;;;;;1137.55;999.90;;;;;;;;;;4956834;28;20500;-65
2023/08/26 08:33:25;;;;;;;1139.68;999.90;;;;;;;;;;4956938;28;20083;-64
2023/08/26 08:35:51;;;;;;;1138.50;999.90;;;;;;;;;;4974384;28;20050;-63
2023/08/26 08:38:18;;;;;;;1132.68;999.90;;;;;;;;;;4960956;28;20054;-65
2023/08/26 08:40:44;;;;;;;1133.82;999.90;;;;;;;;;;4958673;28;20480;-63
2023/08/26 08:43:12;;;;;;;1133.03;999.90;;;;;;;;;;4955594;28;20043;-64
2023/08/26 08:45:39;;;;;;;1140.15;999.90;;;;;;;;;;4957651;28;20500;-67
2023/08/26 08:48:05;;;;;;;1135.25;999.90;;;;;;;;;;4965371;28;20126;-63
2023/08/26 08:50:32;;;;;;;1125.28;999.90;;;;;;;;;;4964844;28;20051;-65
2023/08/26 08:52:59;;;;;;;1127.22;999.90;;;;;;;;;;4961877;28;20073;-65
2023/08/26 08:55:26;;;;;;;1128.53;999.90;;;;;;;;;;4976897;28;20051;-63
2023/08/26 08:57:52;;;;;;;1131.03;999.90;;;;;;;;;;4962232;28;20130;-64
2023/08/26 09:00:21;;;;;;;1133.65;999.90;;;;;;;;;;4960424;28;20047;-65
2023/08/26 09:02:50;;;;;;;1141.47;999.90;;;;;;;;;;4955274;28;20059;-65
2023/08/26 09:05:17;;;;;;;1131.45;999.90;;;;;;;;;;4953193;28;20043;-63
2023/08/26 09:07:43;;;;;;;1133.38;999.90;;;;;;;;;;4960326;28;20043;-64
2023/08/26 09:10:11;;;;;;;1137.57;999.90;;;;;;;;;;4959982;28;20516;-63
2023/08/26 09:12:38;;;;;;;1138.15;999.90;;;;;;;;;;4968394;28;20051;-64
2023/08/26 09:15:05;;;;;;;1138.45;999.90;;;;;;;;;;4964443;28;20105;-65
2023/08/26 09:17:32;;;;;;;1138.28;999.90;;;;;;;;;;4951238;28;20047;-65
2023/08/26 09:19:59;;;;;;;1130.00;999.90;;;;;;;;;;4967083;28;20524;-63
2023/08/26 09:22:27;;;;;;;1145.40;999.90;;;;;;;;;;4981515;28;20138;-64
2023/08/26 09:25:01;;;;;;;1140.00;999.90;;;;;;;;;;4964514;28;20039;-63
2023/08/26 09:27:28;;;;;;;1134.53;999.90;;;;;;;;;;4979022;28;20051;-64
2023/08/26 09:30:00;;;;;;;1134.50;999.90;;;;;;;;;;4961193;28;20051;-63
2023/08/26 09:32:36;;;;;;;1138.88;999.90;;;;;;;;;;4951871;28;20047;-63
2023/08/26 09:35:10;;;;;;;1131.68;999.90;;;;;;;;;;4951988;28;20126;-64
2023/08/26 09:37:37;;;;;;;1145.53;999.90;;;;;;;;;;4964036;28;20409;-64
2023/08/26 09:40:07;;;;;;;1140.15;999.90;;;;;;;;;;4962175;28;20378;-63
2023/08/26 09:42:34;;;;;;;1146.20;999.90;;;;;;;;;;4981404;28;20053;-64
2023/08/26 09:45:00;;;;;;;1143.75;999.90;;;;;;;;;;4967764;28;20050;-65
2023/08/26 09:47:29;;;;;;;1144.93;999.90;;;;;;;;;;4964997;28;20055;-63
2023/08/26 09:49:55;;;;;;;1146.25;999.90;;;;;;;;;;4964112;28;20042;-63
2023/08/26 09:52:23;;;;;;;1141.32;999.90;;;;;;;;;;4978425;28;20051;-64
2023/08/26 09:54:51;;;;;;;1150.03;999.90;;;;;;;;;;4964488;28;20126;-63
2023/08/26 09:57:18;;;;;;;1155.05;999.90;;;;;;;;;;4967394;28;20051;-63
2023/08/26 09:59:44;;;;;;;1151.07;999.90;;;;;;;;;;4960694;28;20050;-65
2023/08/26 10:02:21;;;;;;;1141.78;999.90;;;;;;;;;;4962147;28;20146;-64
2023/08/26 10:07:04;;;;;;;1121.82;999.90;;;;;;;;;;5060981;22;1252281;-61
2023/08/26 10:09:48;;;;;;;1117.47;999.90;;;;;;;;;;5077581;28;20055;-61
2023/08/26 10:12:19;;;;;;;1126.78;999.90;;;;;;;;;;5073913;28;20047;-61
2023/08/26 10:14:49;;;;;;;1116.50;999.90;;;;;;;;;;5076080;28;20053;-61
2023/08/26 10:17:20;;;;;;;1123.97;999.90;;;;;;;;;;5079934;28;20749;-61
2023/08/26 10:19:47;;;;;;;1128.35;999.90;;;;;;;;;;5073045;28;20119;-61
2023/08/26 10:22:14;;;;;;;1126.57;999.90;;;;;;;;;;5077195;28;20568;-61
2023/08/26 10:24:42;;;;;;;1131.32;999.90;;;;;;;;;;5074347;28;20045;-62
2023/08/26 10:27:09;;;;;;;1119.50;999.90;;;;;;;;;;5070602;28;20053;-62
2023/08/26 10:29:37;;;;;;;1122.10;999.90;;;;;;;;;;5079745;28;20045;-61
2023/08/26 10:32:23;;;;;;;1128.93;999.90;;;;;;;;;;5074373;28;20374;-61
2023/08/26 10:34:57;;;;;;;1120.28;999.90;;;;;;;;;;5073553;28;20041;-62
2023/08/26 10:37:24;;;;;;;1120.85;999.90;;;;;;;;;;5081760;28;20469;-62
2023/08/26 10:39:51;;;;;;;1118.47;999.90;;;;;;;;;;5078184;28;20075;-62
2023/08/26 10:42:19;;;;;;;1128.38;999.90;;;;;;;;;;5077265;28;20509;-61
2023/08/26 10:44:50;;;;;;;1117.10;999.90;;;;;;;;;;5076120;28;20056;-62
2023/08/26 10:47:45;;;;;;;1145.65;999.90;;;;;;;;;;5078702;28;20634;-63
2023/08/26 10:50:12;;;;;;;1154.63;999.90;;;;;;;;;;5077780;28;20041;-62
2023/08/26 10:52:40;;;;;;;1155.55;999.90;;;;;;;;;;5078470;28;20115;-63
2023/08/26 10:55:19;;;;;;;1155.45;999.90;;;;;;;;;;5069824;28;20039;-62
2023/08/26 10:58:05;;;;;;;1144.22;999.90;;;;;;;;;;5077390;28;20043;-62
2023/08/26 11:00:32;;;;;;;1154.53;999.90;;;;;;;;;;5079202;28;20041;-66
2023/08/26 11:02:59;;;;;;;1148.38;999.90;;;;;;;;;;5078427;28;20044;-62
2023/08/26 11:05:26;;;;;;;1148.68;999.90;;;;;;;;;;5077854;28;20067;-62
2023/08/26 11:07:53;;;;;;;1150.00;999.90;;;;;;;;;;5080514;28;20132;-63
2023/08/26 11:10:27;;;;;;;1149.78;999.90;;;;;;;;;;5075657;28;20085;-62
2023/08/26 11:12:54;;;;;;;1145.40;999.90;;;;;;;;;;5077151;28;20072;-62
2023/08/26 11:15:21;;;;;;;1146.03;999.90;;;;;;;;;;5079040;28;20098;-62
2023/08/26 11:17:48;;;;;;;1142.70;999.90;;;;;;;;;;5064634;28;20043;-64
2023/08/26 11:20:17;;;;;;;1146.45;999.90;;;;;;;;;;5066430;28;20044;-62
2023/08/26 11:22:45;;;;;;;1137.97;999.90;;;;;;;;;;5064454;28;20045;-62
2023/08/26 11:25:12;;;;;;;1139.00;999.90;;;;;;;;;;5066385;28;20431;-62
2023/08/26 11:27:38;;;;;;;1140.43;999.90;;;;;;;;;;5064298;28;20044;-62
2023/08/26 11:30:09;;;;;;;1140.00;999.90;;;;;;;;;;5062872;28;20123;-61
2023/08/26 11:32:36;;;;;;;1126.80;999.90;;;;;;;;;;5067920;28;20481;-62
2023/08/26 11:35:04;;;;;;;1131.78;999.90;;;;;;;;;;5060961;28;20044;-61
2023/08/26 11:37:41;;;;;;;1138.85;999.90;;;;;;;;;;5066293;28;20037;-62
2023/08/26 11:40:09;;;;;;;1125.38;999.90;;;;;;;;;;5064001;28;20044;-62
2023/08/26 11:42:36;;;;;;;1151.82;999.90;;;;;;;;;;5061156;28;20064;-62
2023/08/26 11:45:07;;;;;;;1153.15;999.90;;;;;;;;;;5062929;28;20083;-62
2023/08/26 11:47:34;;;;;;;1145.43;999.90;;;;;;;;;;5063771;28;20094;-62
2023/08/26 11:50:01;;;;;;;1152.15;999.90;;;;;;;;;;5064728;28;20119;-62
2023/08/26 11:52:38;;;;;;;1146.38;999.90;;;;;;;;;;5063584;28;20045;-61
2023/08/26 11:55:05;;;;;;;1158.05;999.90;;;;;;;;;;5064423;28;20051;-62
2023/08/26 11:57:35;;;;;;;1151.47;999.90;;;;;;;;;;5061995;28;20665;-61
2023/08/26 12:00:16;;;;;;;1151.32;999.90;;;;;;;;;;5060731;28;20052;-62
2023/08/26 12:02:52;;;;;;;1150.93;999.90;;;;;;;;;;5064324;28;20441;-62
2023/08/26 12:05:19;;;;;;;1148.65;999.90;;;;;;;;;;5061668;28;20083;-62
2023/08/26 12:07:46;;;;;;;1142.32;999.90;;;;;;;;;;5059831;28;20049;-62
2023/08/26 12:10:14;;;;;;;1146.78;999.90;;;;;;;;;;5061514;28;20598;-62
2023/08/26 12:12:41;;;;;;;1157.35;999.90;;;;;;;;;;5062679;28;20460;-62
2023/08/26 12:15:09;;;;;;;1148.55;999.90;;;;;;;;;;5062132;28;20051;-62
2023/08/26 12:17:43;;;;;;;1146.57;999.90;;;;;;;;;;5063720;28;20120;-61
2023/08/26 12:20:19;;;;;;;1141.03;999.90;;;;;;;;;;5061253;28;20425;-62
2023/08/26 12:22:46;;;;;;;1139.55;999.90;;;;;;;;;;5060375;28;20055;-62
2023/08/26 12:25:22;;;;;;;1149.55;999.90;;;;;;;;;;5063291;28;20029;-62
2023/08/26 12:27:49;;;;;;;1154.35;999.90;;;;;;;;;;5062196;28;20413;-62
2023/08/26 12:30:15;;;;;;;1145.18;999.90;;;;;;;;;;5061762;28;20044;-62
2023/08/26 12:32:42;;;;;;;1144.13;999.90;;;;;;;;;;5057080;28;20403;-62
2023/08/26 12:35:09;;;;;;;1151.78;999.90;;;;;;;;;;5065670;28;20040;-62
2023/08/26 12:37:35;;;;;;;1136.13;999.90;;;;;;;;;;5062459;28;20048;-62
2023/08/26 12:40:04;;;;;;;1145.90;999.90;;;;;;;;;;5063497;28;20485;-62
2023/08/26 12:42:32;;;;;;;1141.80;999.90;;;;;;;;;;5062385;28;20076;-62
2023/08/26 12:45:00;;;;;;;1132.53;999.90;;;;;;;;;;5059911;28;20045;-61
2023/08/26 12:47:27;;;;;;;1133.60;999.90;;;;;;;;;;5066189;28;20111;-62
2023/08/26 12:49:56;;;;;;;1136.32;999.90;;;;;;;;;;5061639;28;20392;-61
2023/08/26 12:52:23;;;;;;;1138.78;999.90;;;;;;;;;;5062859;28;20135;-62
2023/08/26 12:54:50;;;;;;;1148.45;999.90;;;;;;;;;;5062942;28;20068;-63
2023/08/26 12:57:16;;;;;;;1147.35;999.90;;;;;;;;;;5061800;28;20045;-62
2023/08/26 12:59:43;;;;;;;1163.70;999.90;;;;;;;;;;5061879;28;20055;-62
2023/08/26 13:02:10;;;;;;;1150.93;999.90;;;;;;;;;;5059175;28;20044;-62
2023/08/26 13:04:36;;;;;;;1158.45;999.90;;;;;;;;;;5065810;28;20051;-62
2023/08/26 13:07:03;;;;;;;1157.00;999.90;;;;;;;;;;5058427;28;20543;-63
2023/08/26 13:09:30;;;;;;;1158.43;999.90;;;;;;;;;;5060254;28;20040;-63
2023/08/26 13:11:57;;;;;;;1157.85;999.90;;;;;;;;;;5066568;28;20048;-63
2023/08/26 13:14:23;;;;;;;1155.28;999.90;;;;;;;;;;5060013;28;20123;-62
2023/08/26 13:16:50;;;;;;;1157.50;999.90;;;;;;;;;;5066475;28;20433;-63
2023/08/26 13:19:17;;;;;;;1160.32;999.90;;;;;;;;;;5060495;28;20635;-62
2023/08/26 13:21:44;;;;;;;1157.55;999.90;;;;;;;;;;5058918;28;20136;-65
2023/08/26 13:24:10;;;;;;;1162.82;999.90;;;;;;;;;;5062723;28;20048;-63
2023/08/26 13:26:38;;;;;;;1157.93;999.90;;;;;;;;;;5061234;28;20040;-63
2023/08/26 13:29:05;;;;;;;1156.20;999.90;;;;;;;;;;5064706;28;20498;-63
2023/08/26 13:31:32;;;;;;;1145.75;999.90;;;;;;;;;;5062194;28;20048;-63
2023/08/26 13:33:58;;;;;;;1150.75;999.90;;;;;;;;;;5060397;28;20441;-62
2023/08/26 13:36:25;;;;;;;1142.10;999.90;;;;;;;;;;5061227;28;20136;-62
2023/08/26 13:38:56;;;;;;;1140.22;999.90;;;;;;;;;;5061050;28;20123;-65
2023/08/26 13:41:23;;;;;;;1139.25;999.90;;;;;;;;;;5062567;28;20045;-63
2023/08/26 13:43:52;;;;;;;1134.93;999.90;;;;;;;;;;5062291;28;20053;-63
2023/08/26 13:46:19;;;;;;;1129.85;999.90;;;;;;;;;;5062695;28;20186;-63
2023/08/26 13:48:46;;;;;;;1143.10;999.90;;;;;;;;;;5059329;28;20068;-63
2023/08/26 13:51:13;;;;;;;1131.78;999.90;;;;;;;;;;5061875;28;20413;-63